Time;durP1;ratioP1;P1;durP2;ratioP2;P2;SDS_P1;SDS_P2;PMS_P1;PMS_P2;Temp;Humidity;BMP_temperature;BMP_pressure;BME280_temperature;BME280_humidity;BME280_pressure;Samples;Min_cycle;Max_cycle;Signal;HPM_P1;HPM_P2
2023/09/24 00:00:57;;;;;;;17.05;5.15;;;;;;;24.49;57.68;98001.53;5113327;28;20228;-56
2023/09/24 00:03:24;;;;;;;21.65;4.38;;;;;;;24.56;57.11;98006.84;5112880;28;20633;-57
2023/09/24 00:05:50;;;;;;;16.95;4.97;;;;;;;24.43;57.53;97983.84;5112727;28;20587;-56
2023/09/24 00:08:16;;;;;;;24.10;4.70;;;;;;;24.29;58.54;97987.50;5113186;28;20511;-57
2023/09/24 00:10:52;;;;;;;17.92;5.00;;;;;;;24.13;58.13;97959.81;5112028;28;20179;-57
2023/09/24 00:13:18;;;;;;;20.15;4.88;;;;;;;24.28;57.83;97985.03;5112959;28;20710;-57
2023/09/24 00:15:44;;;;;;;17.85;4.95;;;;;;;24.03;58.80;97960.19;5112995;28;20270;-57
2023/09/24 00:18:10;;;;;;;22.20;5.22;;;;;;;24.10;58.02;97974.22;5112956;28;20188;-57
2023/09/24 00:20:35;;;;;;;17.45;4.78;;;;;;;24.06;57.89;97988.06;5112906;28;20171;-57
2023/09/24 00:23:01;;;;;;;21.30;5.05;;;;;;;23.90;58.07;97970.72;5112646;28;20172;-57
2023/09/24 00:25:29;;;;;;;24.73;4.97;;;;;;;23.83;57.90;97972.50;5049423;28;20274;-57
2023/09/24 00:27:56;;;;;;;23.15;5.82;;;;;;;23.90;58.71;97988.41;5049731;28;20329;-57
2023/09/24 00:30:22;;;;;;;14.75;4.85;;;;;;;23.77;58.59;97968.81;5049739;28;20537;-57
2023/09/24 00:32:48;;;;;;;20.70;5.82;;;;;;;24.01;58.99;98003.69;5049652;28;20237;-57
2023/09/24 00:35:13;;;;;;;17.35;4.40;;;;;;;24.04;59.80;98012.03;5049830;28;20186;-57
2023/09/24 00:37:39;;;;;;;19.92;5.35;;;;;;;23.91;60.16;97995.31;5049504;28;20667;-57
2023/09/24 00:40:05;;;;;;;17.90;5.70;;;;;;;23.98;61.04;98012.00;5049462;28;20318;-57
2023/09/24 00:42:32;;;;;;;18.02;5.18;;;;;;;23.83;61.98;98011.34;5049402;28;20185;-57
2023/09/24 00:44:58;;;;;;;19.65;5.22;;;;;;;23.75;59.06;97978.75;5049341;28;20730;-57
2023/09/24 00:47:24;;;;;;;22.38;5.15;;;;;;;23.77;58.27;97970.63;5049172;28;20196;-57
2023/09/24 00:49:50;;;;;;;17.38;4.90;;;;;;;24.01;57.99;97999.22;5049257;28;20181;-57
2023/09/24 00:52:15;;;;;;;21.80;5.78;;;;;;;23.95;57.92;97989.44;5049253;28;20688;-57
2023/09/24 00:54:42;;;;;;;21.67;4.70;;;;;;;24.02;57.67;98005.31;5049232;28;20169;-57
2023/09/24 00:57:08;;;;;;;19.40;4.93;;;;;;;23.80;57.71;97973.69;5098580;28;20183;-57
2023/09/24 00:59:33;;;;;;;21.40;5.28;;;;;;;23.86;57.56;97972.09;5112186;28;20228;-57
2023/09/24 01:01:59;;;;;;;23.60;5.45;;;;;;;23.86;56.93;97978.19;5112155;28;20171;-57
2023/09/24 01:04:24;;;;;;;28.23;5.85;;;;;;;23.98;56.72;98008.34;5112009;28;20649;-57
2023/09/24 01:06:50;;;;;;;22.92;4.95;;;;;;;23.86;55.29;97982.69;5112087;28;20206;-57
2023/09/24 01:09:22;;;;;;;20.42;5.35;;;;;;;24.02;56.83;98005.31;5111914;28;20211;-58
2023/09/24 01:11:52;;;;;;;23.23;5.50;;;;;;;24.06;57.72;98027.72;5111990;28;20171;-57
2023/09/24 01:14:18;;;;;;;21.50;5.32;;;;;;;23.75;59.17;98014.94;5111991;28;20215;-57
2023/09/24 01:16:43;;;;;;;23.42;5.55;;;;;;;23.54;60.93;98019.53;5111771;28;20214;-57
2023/09/24 01:19:09;;;;;;;18.05;5.78;;;;;;;23.27;63.65;98010.66;5111471;28;20694;-58
2023/09/24 01:21:36;;;;;;;15.93;5.57;;;;;;;23.04;65.10;98007.41;5111238;28;20186;-57
2023/09/24 01:24:03;;;;;;;15.43;5.13;;;;;;;23.00;65.56;98005.34;5111778;28;20254;-58
2023/09/24 01:26:28;;;;;;;20.92;6.97;;;;;;;22.94;67.24;97996.38;5111571;28;20241;-58
2023/09/24 01:28:54;;;;;;;24.23;5.95;;;;;;;23.26;66.73;98021.41;5111689;28;20179;-58
2023/09/24 01:31:20;;;;;;;13.85;5.82;;;;;;;23.16;66.54;97997.13;5111635;28;20235;-58
2023/09/24 01:33:49;;;;;;;20.08;5.53;;;;;;;23.31;67.50;98025.06;5111565;28;20175;-58
2023/09/24 01:36:15;;;;;;;19.92;6.70;;;;;;;23.22;67.16;97996.38;5111792;28;20493;-58
2023/09/24 01:38:41;;;;;;;14.63;6.47;;;;;;;23.44;66.68;98027.00;5111476;28;20174;-58
2023/09/24 01:41:11;;;;;;;21.90;5.85;;;;;;;23.33;66.91;98016.97;5111409;28;20202;-57
2023/09/24 01:43:37;;;;;;;19.80;6.07;;;;;;;23.06;67.99;97983.44;5068250;28;20281;-57
2023/09/24 01:46:07;;;;;;;21.85;6.50;;;;;;;23.14;67.44;97992.03;5048102;28;20339;-58
2023/09/24 01:48:33;;;;;;;22.80;6.80;;;;;;;23.14;69.03;98022.91;5048281;28;20658;-57
2023/09/24 01:50:59;;;;;;;15.95;6.32;;;;;;;23.07;69.11;98011.50;5048188;28;20193;-58
2023/09/24 01:53:25;;;;;;;14.27;6.22;;;;;;;22.73;69.75;97985.06;5048359;28;20234;-57
2023/09/24 01:55:51;;;;;;;18.85;5.60;;;;;;;22.62;69.63;97975.03;5048272;28;20181;-57
2023/09/24 01:58:17;;;;;;;23.67;5.65;;;;;;;22.72;68.41;98009.81;5048149;28;20184;-57
2023/09/24 02:00:42;;;;;;;22.65;5.45;;;;;;;22.72;66.61;98012.44;5008475;28;20229;-57
2023/09/24 02:03:10;;;;;;;21.75;5.82;;;;;;;22.73;65.08;97992.97;5007863;28;20190;-58
2023/09/24 02:05:39;;;;;;;22.63;5.32;;;;;;;22.86;64.02;97995.72;5008450;28;20224;-57
2023/09/24 02:08:09;;;;;;;22.90;5.38;;;;;;;22.90;63.75;98010.94;5008412;28;20692;-57
2023/09/24 02:10:40;;;;;;;18.10;5.20;;;;;;;22.95;63.73;98024.41;5008463;28;20202;-57
2023/09/24 02:13:07;;;;;;;19.15;4.90;;;;;;;22.80;63.37;98017.56;5008427;28;20685;-57
2023/09/24 02:15:33;;;;;;;20.98;5.20;;;;;;;22.84;63.25;98032.03;5026058;28;20190;-57
2023/09/24 02:17:59;;;;;;;19.52;4.85;;;;;;;22.62;63.58;98014.59;5028155;28;20291;-57
2023/09/24 02:20:25;;;;;;;22.80;5.95;;;;;;;22.70;65.07;98033.75;5028098;28;20186;-57
2023/09/24 02:22:56;;;;;;;25.85;5.45;;;;;;;22.69;67.15;98023.38;5037695;28;20275;-58
2023/09/24 02:25:23;;;;;;;17.15;4.85;;;;;;;22.48;67.12;97989.09;5067941;28;20531;-57
2023/09/24 02:27:50;;;;;;;29.40;6.75;;;;;;;22.34;67.87;97971.50;5067984;28;20610;-58
2023/09/24 02:30:17;;;;;;;23.75;5.70;;;;;;;22.46;66.68;97996.38;5067973;28;20184;-57
2023/09/24 02:32:43;;;;;;;19.88;5.43;;;;;;;22.29;66.97;97976.50;5107165;28;20229;-57
2023/09/24 02:35:13;;;;;;;24.05;4.93;;;;;;;22.26;69.57;98006.69;5114163;28;20183;-57
2023/09/24 02:37:39;;;;;;;14.40;5.55;;;;;;;22.03;70.37;97989.44;5114846;28;20175;-57
2023/09/24 02:40:11;;;;;;;28.73;6.65;;;;;;;21.93;69.27;97968.69;5114859;28;20228;-58
2023/09/24 02:42:37;;;;;;;17.00;5.30;;;;;;;22.04;66.70;97965.53;5114717;28;20176;-57
2023/09/24 02:45:05;;;;;;;21.63;5.60;;;;;;;22.27;66.14;97987.25;5114692;28;20267;-58
2023/09/24 02:47:31;;;;;;;19.90;5.30;;;;;;;22.26;65.46;97987.44;5114632;28;20217;-57
2023/09/24 02:49:56;;;;;;;21.15;5.15;;;;;;;22.42;64.78;98000.38;5114287;28;20203;-57
2023/09/24 02:52:22;;;;;;;22.20;5.80;;;;;;;22.49;64.20;98006.56;5114740;28;20167;-57
2023/09/24 02:54:48;;;;;;;22.40;6.35;;;;;;;22.28;64.13;97994.19;5114611;28;20179;-57
2023/09/24 02:57:14;;;;;;;26.55;5.88;;;;;;;21.97;65.13;97996.25;5114442;28;20250;-57
2023/09/24 02:59:39;;;;;;;22.83;5.70;;;;;;;22.12;65.34;98017.31;5114357;28;20297;-57
2023/09/24 03:02:04;;;;;;;24.10;5.68;;;;;;;21.91;66.71;98009.38;5114384;28;20171;-57
2023/09/24 03:04:30;;;;;;;18.80;5.28;;;;;;;21.69;67.61;97987.41;5114261;28;20676;-57
2023/09/24 03:06:56;;;;;;;20.35;5.05;;;;;;;21.61;69.03;98008.56;5114239;28;20531;-57
2023/09/24 03:09:21;;;;;;;23.73;5.32;;;;;;;21.60;67.50;97998.22;5114293;28;20176;-57
2023/09/24 03:11:46;;;;;;;24.50;5.57;;;;;;;21.61;67.79;97994.59;5113980;28;20175;-57
2023/09/24 03:14:12;;;;;;;22.52;4.70;;;;;;;21.87;67.56;98024.75;5114399;28;20684;-57
2023/09/24 03:16:37;;;;;;;24.25;5.75;;;;;;;21.87;67.36;98008.09;5113860;28;20172;-57
2023/09/24 03:19:03;;;;;;;23.50;5.05;;;;;;;21.76;67.22;97992.78;5113853;28;20259;-57
2023/09/24 03:21:28;;;;;;;28.05;5.03;;;;;;;21.67;67.65;98020.22;5114456;28;20298;-58
2023/09/24 03:23:54;;;;;;;25.45;5.15;;;;;;;21.52;68.19;98012.31;5114160;28;20164;-57
2023/09/24 03:26:19;;;;;;;17.70;5.20;;;;;;;21.03;69.40;98000.69;5114112;28;20282;-58
2023/09/24 03:28:45;;;;;;;21.27;5.63;;;;;;;21.04;69.76;97996.25;5113936;28;20226;-57
2023/09/24 03:31:15;;;;;;;23.75;6.10;;;;;;;21.07;69.69;97991.44;5113968;28;20175;-58
2023/09/24 03:33:41;;;;;;;24.92;6.07;;;;;;;21.10;70.48;98011.31;5113850;28;20664;-58
2023/09/24 03:36:10;;;;;;;15.90;5.15;;;;;;;21.12;69.90;98004.03;5113648;28;20179;-58
2023/09/24 03:38:36;;;;;;;21.10;5.72;;;;;;;21.09;70.41;98015.75;5113783;28;20261;-58
2023/09/24 03:41:03;;;;;;;15.38;5.03;;;;;;;21.14;70.16;98009.94;5113716;28;20179;-58
2023/09/24 03:43:29;;;;;;;23.08;5.78;;;;;;;21.29;70.17;98031.81;5113754;28;20202;-58
2023/09/24 03:45:54;;;;;;;23.02;5.72;;;;;;;21.10;71.38;98021.84;5113519;28;20199;-58
2023/09/24 03:48:20;;;;;;;20.45;5.70;;;;;;;20.91;72.78;98017.91;5113477;28;20167;-58
2023/09/24 03:50:45;;;;;;;20.27;4.95;;;;;;;21.09;72.48;98041.25;5113297;28;20175;-58
2023/09/24 03:53:11;;;;;;;18.48;4.93;;;;;;;20.78;74.96;98054.47;5113841;28;20168;-58
2023/09/24 03:55:37;;;;;;;25.90;5.90;;;;;;;20.65;76.05;98056.06;5113415;28;20266;-58
2023/09/24 03:58:06;;;;;;;22.60;5.65;;;;;;;20.59;76.19;98031.31;5113391;28;20183;-58
2023/09/24 04:00:32;;;;;;;24.48;5.32;;;;;;;20.83;75.02;98040.78;5113266;28;20244;-58
2023/09/24 04:02:57;;;;;;;17.77;5.68;;;;;;;20.85;75.23;98028.28;5113242;28;20203;-58
2023/09/24 04:05:23;;;;;;;20.05;5.38;;;;;;;20.79;75.57;98029.00;5112959;28;20293;-58
2023/09/24 04:07:50;;;;;;;20.33;5.68;;;;;;;21.05;75.13;98055.75;5113127;28;20194;-58
2023/09/24 04:10:16;;;;;;;24.80;5.78;;;;;;;21.18;74.03;98050.69;5113128;28;20182;-58
2023/09/24 04:12:43;;;;;;;17.40;4.97;;;;;;;21.06;73.69;98015.28;5113008;28;20183;-58
2023/09/24 04:15:09;;;;;;;18.30;5.32;;;;;;;21.01;75.39;98039.50;5113181;28;20190;-58
2023/09/24 04:17:39;;;;;;;21.75;5.13;;;;;;;20.82;75.47;98008.44;5113013;28;20263;-58
2023/09/24 04:20:07;;;;;;;15.23;4.85;;;;;;;20.87;75.38;98010.53;5112965;28;20177;-58
2023/09/24 04:22:32;;;;;;;16.40;4.97;;;;;;;20.93;75.18;98004.56;5109721;28;20200;-58
2023/09/24 04:24:57;;;;;;;21.35;5.30;;;;;;;21.30;72.38;98043.97;5112848;28;20563;-58
2023/09/24 04:27:23;;;;;;;14.48;4.90;;;;;;;21.44;68.39;98054.53;5112559;28;20167;-58
2023/09/24 04:29:49;;;;;;;24.92;4.72;;;;;;;21.38;68.01;98052.59;5112642;28;20201;-58
2023/09/24 04:32:15;;;;;;;20.05;5.97;;;;;;;21.42;66.79;98063.59;5069520;28;20180;-58
2023/09/24 04:34:42;;;;;;;16.20;5.03;;;;;;;21.23;68.75;98048.34;5069543;28;20192;-58
2023/09/24 04:37:07;;;;;;;18.80;5.72;;;;;;;21.16;72.13;98040.34;5069472;28;20188;-58
2023/09/24 04:39:32;;;;;;;21.98;6.10;;;;;;;20.93;74.67;98008.00;5069448;28;20193;-58
2023/09/24 04:41:58;;;;;;;21.50;5.80;;;;;;;21.07;75.91;98049.31;5069458;28;20176;-58
2023/09/24 04:44:24;;;;;;;16.55;5.78;;;;;;;20.88;73.77;98026.16;5069456;28;20705;-58
2023/09/24 04:46:49;;;;;;;24.00;5.57;;;;;;;20.77;77.64;98030.97;5069289;28;20220;-58
2023/09/24 04:49:15;;;;;;;27.90;6.47;;;;;;;20.86;77.53;98029.94;5069362;28;20188;-58
2023/09/24 04:51:40;;;;;;;22.73;5.95;;;;;;;20.84;78.25;98018.75;5069214;28;20184;-58
2023/09/24 04:54:06;;;;;;;26.00;5.57;;;;;;;21.09;77.48;98042.06;5069272;28;20289;-58
2023/09/24 04:56:31;;;;;;;23.92;6.40;;;;;;;21.23;78.03;98067.59;5068695;28;20249;-59
2023/09/24 04:58:57;;;;;;;23.90;5.63;;;;;;;21.25;77.94;98046.34;5069155;28;20185;-58
2023/09/24 05:01:23;;;;;;;15.40;5.15;;;;;;;21.39;76.26;98048.19;5069173;28;20191;-58
2023/09/24 05:03:50;;;;;;;17.52;5.28;;;;;;;21.50;75.21;98058.25;5100967;28;20183;-58
2023/09/24 05:06:16;;;;;;;22.30;5.63;;;;;;;21.57;75.37;98067.06;5112071;28;20289;-58
2023/09/24 05:08:41;;;;;;;21.27;5.30;;;;;;;21.87;75.58;98106.41;5112403;28;20266;-58
2023/09/24 05:11:13;;;;;;;20.63;5.70;;;;;;;21.93;75.23;98096.94;5112041;28;20339;-58
2023/09/24 05:13:38;;;;;;;31.88;5.43;;;;;;;22.05;74.15;98111.28;5111637;28;20195;-58
2023/09/24 05:16:04;;;;;;;19.27;5.65;;;;;;;22.05;73.47;98100.75;5111962;28;20677;-58
2023/09/24 05:18:32;;;;;;;21.08;6.15;;;;;;;22.19;71.30;98110.44;5111862;28;20193;-58
2023/09/24 05:20:57;;;;;;;19.90;5.38;;;;;;;22.15;67.57;98098.66;5111868;28;20181;-58
2023/09/24 05:23:23;;;;;;;25.00;6.13;;;;;;;22.03;65.49;98085.09;5111839;28;20172;-58
2023/09/24 05:25:51;;;;;;;23.63;6.25;;;;;;;22.06;63.98;98083.94;5111756;28;20354;-58
2023/09/24 05:28:17;;;;;;;18.65;5.32;;;;;;;22.28;64.13;98110.16;5111667;28;20296;-58
2023/09/24 05:30:42;;;;;;;23.33;5.53;;;;;;;22.43;64.00;98124.13;5111579;28;20270;-58
2023/09/24 05:33:08;;;;;;;36.47;6.78;;;;;;;22.33;62.85;98117.50;5111436;28;20175;-58
2023/09/24 05:35:34;;;;;;;30.02;5.97;;;;;;;22.25;63.34;98101.81;5111558;28;20183;-58
2023/09/24 05:37:59;;;;;;;26.08;5.28;;;;;;;22.34;63.00;98109.41;5111514;28;20232;-58
2023/09/24 05:40:24;;;;;;;24.42;5.40;;;;;;;22.46;61.98;98128.22;5111437;28;20637;-58
2023/09/24 05:42:50;;;;;;;21.95;6.78;;;;;;;22.44;62.33;98117.06;5111686;28;20182;-58
2023/09/24 05:45:15;;;;;;;27.58;5.40;;;;;;;22.30;62.09;98107.31;5111265;28;20624;-58
2023/09/24 05:47:41;;;;;;;27.05;5.88;;;;;;;22.51;62.40;98136.41;5111441;28;20651;-58
2023/09/24 05:50:07;;;;;;;21.35;5.68;;;;;;;22.58;60.96;98137.28;5111468;28;20171;-58
2023/09/24 05:52:33;;;;;;;25.65;6.50;;;;;;;22.45;62.75;98105.50;5111614;28;20178;-58
2023/09/24 05:54:58;;;;;;;19.20;5.47;;;;;;;22.48;63.00;98103.31;5075190;28;20193;-57
2023/09/24 05:57:28;;;;;;;20.92;5.63;;;;;;;22.66;62.77;98139.81;5111592;28;20186;-57
2023/09/24 05:59:56;;;;;;;25.73;6.68;;;;;;;22.48;63.40;98124.41;5048318;28;20621;-57
2023/09/24 06:02:24;;;;;;;20.27;5.93;;;;;;;22.54;63.79;98125.47;5031161;28;20189;-57
2023/09/24 06:04:50;;;;;;;30.63;5.97;;;;;;;22.72;62.92;98133.78;5048160;28;20197;-57
2023/09/24 06:07:16;;;;;;;24.33;6.68;;;;;;;22.55;62.29;98112.09;5048269;28;20189;-57
2023/09/24 06:09:41;;;;;;;28.73;6.32;;;;;;;22.65;60.93;98109.97;5050692;28;20272;-57
2023/09/24 06:12:07;;;;;;;25.63;6.15;;;;;;;22.64;61.94;98111.00;5052212;28;20572;-57
2023/09/24 06:14:32;;;;;;;17.63;7.28;;;;;;;22.68;67.22;98114.06;5052278;28;20580;-57
2023/09/24 06:16:58;;;;;;;26.10;6.65;;;;;;;22.92;64.81;98137.44;5052241;28;20560;-57
2023/09/24 06:19:23;;;;;;;21.92;5.90;;;;;;;22.77;66.71;98123.47;5051996;28;20192;-57
2023/09/24 06:21:53;;;;;;;26.20;6.82;;;;;;;22.85;67.22;98124.16;5052128;28;20691;-56
2023/09/24 06:24:20;;;;;;;24.85;6.22;;;;;;;22.92;66.37;98116.31;5051984;28;20181;-56
2023/09/24 06:26:45;;;;;;;20.20;6.13;;;;;;;23.15;67.40;98124.84;5051765;28;20204;-57
2023/09/24 06:29:11;;;;;;;25.20;5.15;;;;;;;23.23;62.54;98124.72;5051988;28;20236;-58
2023/09/24 06:31:37;;;;;;;23.63;5.00;;;;;;;23.44;59.21;98138.75;5102289;28;20190;-58
2023/09/24 06:34:02;;;;;;;18.10;6.25;;;;;;;23.35;61.12;98110.00;5115012;28;20182;-57
2023/09/24 06:36:28;;;;;;;19.00;6.95;;;;;;;23.64;66.73;98139.69;5115035;28;20176;-57
2023/09/24 06:38:54;;;;;;;16.17;7.38;;;;;;;23.71;67.81;98142.38;5114867;28;20185;-57
2023/09/24 06:41:19;;;;;;;15.23;7.63;;;;;;;23.56;69.40;98128.44;5114859;28;20210;-57
2023/09/24 06:43:45;;;;;;;16.83;7.38;;;;;;;23.73;69.10;98148.28;5114813;28;20262;-57
2023/09/24 06:46:10;;;;;;;15.52;6.93;;;;;;;23.47;68.99;98109.28;5114726;28;20681;-58
2023/09/24 06:48:36;;;;;;;19.30;7.07;;;;;;;23.77;69.22;98144.25;5114470;28;20202;-58
2023/09/24 06:51:07;;;;;;;20.67;7.25;;;;;;;23.75;68.83;98113.53;5114886;28;20175;-58
2023/09/24 06:53:32;;;;;;;15.40;7.63;;;;;;;23.92;68.84;98135.22;5114685;28;20175;-57
2023/09/24 06:55:57;;;;;;;15.85;6.40;;;;;;;24.04;66.95;98133.66;5114605;28;20181;-58
2023/09/24 06:58:23;;;;;;;16.50;6.97;;;;;;;23.98;66.96;98154.75;5114430;28;20194;-58
2023/09/24 07:00:48;;;;;;;22.95;6.93;;;;;;;23.90;67.03;98154.91;5114561;28;20246;-58
2023/09/24 07:03:14;;;;;;;21.75;7.05;;;;;;;23.73;67.57;98140.34;5114502;28;20228;-57
2023/09/24 07:05:39;;;;;;;16.17;6.75;;;;;;;23.86;67.42;98142.03;5114428;28;20681;-58
2023/09/24 07:08:05;;;;;;;15.73;6.80;;;;;;;23.85;67.76;98113.19;5114418;28;20171;-58
2023/09/24 07:10:30;;;;;;;22.25;6.85;;;;;;;24.21;67.42;98148.97;5114082;28;20236;-57
2023/09/24 07:12:56;;;;;;;18.17;5.97;;;;;;;24.14;65.38;98118.25;5114281;28;20268;-58
2023/09/24 07:15:21;;;;;;;20.15;6.43;;;;;;;24.25;65.86;98136.16;5114050;28;20171;-58
2023/09/24 07:17:46;;;;;;;13.63;6.00;;;;;;;24.13;66.08;98110.50;5114248;28;20175;-58
2023/09/24 07:20:13;;;;;;;12.82;6.25;;;;;;;24.29;65.34;98111.78;5113700;28;20179;-58
2023/09/24 07:22:38;;;;;;;17.88;6.45;;;;;;;24.42;65.00;98111.00;5113986;28;20175;-58
2023/09/24 07:25:05;;;;;;;22.60;6.75;;;;;;;24.65;64.98;98133.50;5113722;28;20320;-58
2023/09/24 07:27:31;;;;;;;26.02;6.72;;;;;;;24.62;64.28;98104.78;5113951;28;20301;-58
2023/09/24 07:29:56;;;;;;;15.30;5.88;;;;;;;24.65;63.27;98116.78;5114066;28;20237;-58
2023/09/24 07:32:22;;;;;;;12.95;6.07;;;;;;;24.78;63.64;98132.72;5113620;28;20180;-58
2023/09/24 07:34:47;;;;;;;13.65;6.53;;;;;;;25.00;62.80;98142.09;5113792;28;20258;-58
2023/09/24 07:37:16;;;;;;;14.23;6.45;;;;;;;25.16;62.60;98139.91;5113806;28;20183;-58
2023/09/24 07:39:41;;;;;;;16.20;6.68;;;;;;;25.27;61.36;98136.66;5113318;28;20628;-58
2023/09/24 07:42:07;;;;;;;17.42;6.80;;;;;;;25.27;61.65;98128.72;5113766;28;20259;-58
2023/09/24 07:44:32;;;;;;;14.63;6.47;;;;;;;25.44;61.21;98142.34;5113445;28;20167;-58
2023/09/24 07:46:58;;;;;;;12.55;5.93;;;;;;;25.21;60.32;98112.78;5113541;28;20590;-58
2023/09/24 07:49:24;;;;;;;13.73;7.18;;;;;;;25.29;61.47;98131.16;5113262;28;20691;-57
2023/09/24 07:51:49;;;;;;;23.67;6.60;;;;;;;25.41;61.27;98146.22;5113520;28;20217;-58
2023/09/24 07:54:17;;;;;;;20.13;6.80;;;;;;;25.51;61.14;98149.28;5113295;28;20304;-58
2023/09/24 07:56:43;;;;;;;13.55;6.13;;;;;;;25.54;61.47;98148.88;5050267;28;20321;-58
2023/09/24 07:59:12;;;;;;;18.55;7.10;;;;;;;25.65;61.44;98150.91;5050360;28;20212;-58
2023/09/24 08:01:37;;;;;;;13.75;6.68;;;;;;;25.61;60.73;98131.13;5050218;28;20247;-58
2023/09/24 08:04:03;;;;;;;17.50;7.03;;;;;;;25.72;60.73;98143.75;5050204;28;20678;-58
2023/09/24 08:06:29;;;;;;;20.27;6.47;;;;;;;25.74;59.93;98131.13;5050044;28;20239;-58
2023/09/24 08:08:55;;;;;;;13.93;6.88;;;;;;;25.87;60.55;98147.00;5050313;28;20181;-58
2023/09/24 08:11:21;;;;;;;20.83;7.18;;;;;;;25.85;60.73;98138.44;5050232;28;20741;-58
2023/09/24 08:13:47;;;;;;;20.83;7.82;;;;;;;25.89;61.26;98139.63;5049903;28;20283;-58
2023/09/24 08:16:13;;;;;;;16.20;6.90;;;;;;;25.77;61.29;98128.03;5050398;28;20280;-58
2023/09/24 08:18:39;;;;;;;21.13;7.13;;;;;;;25.87;61.39;98146.16;5050027;28;20207;-58
2023/09/24 08:21:04;;;;;;;12.40;6.47;;;;;;;25.97;60.95;98141.28;5049979;28;20200;-58
2023/09/24 08:23:31;;;;;;;15.82;6.43;;;;;;;25.93;61.01;98129.44;5049874;28;20256;-58
2023/09/24 08:25:56;;;;;;;14.50;6.78;;;;;;;25.68;60.37;98117.88;5049892;28;20741;-58
2023/09/24 08:28:22;;;;;;;19.52;6.80;;;;;;;25.70;61.19;98119.28;5098837;28;20183;-58
2023/09/24 08:30:47;;;;;;;13.88;6.63;;;;;;;25.78;61.90;98100.50;5112451;28;20651;-58
2023/09/24 08:33:13;;;;;;;19.33;6.63;;;;;;;25.84;62.01;98112.91;5111913;28;20178;-58
2023/09/24 08:35:42;;;;;;;15.23;7.20;;;;;;;25.83;61.62;98106.00;5112621;28;20175;-58
2023/09/24 08:38:07;;;;;;;19.23;7.03;;;;;;;26.15;61.41;98128.16;5112708;28;20175;-58
2023/09/24 08:40:33;;;;;;;13.95;6.72;;;;;;;26.29;61.27;98133.22;5112588;28;20173;-58
2023/09/24 08:42:59;;;;;;;19.75;7.88;;;;;;;26.37;60.43;98130.31;5112898;28;20175;-58
2023/09/24 08:45:26;;;;;;;17.63;6.88;;;;;;;26.29;59.41;98103.22;5112389;28;20293;-58
2023/09/24 08:47:52;;;;;;;13.27;7.50;;;;;;;26.61;60.06;98129.63;5112375;28;20232;-58
2023/09/24 08:50:18;;;;;;;13.55;7.07;;;;;;;26.59;59.65;98122.91;5112437;28;20175;-58
2023/09/24 08:52:45;;;;;;;23.55;7.55;;;;;;;26.49;59.47;98125.16;5112107;28;20211;-57
2023/09/24 08:55:12;;;;;;;19.42;7.45;;;;;;;26.30;59.47;98113.59;5112291;28;20636;-58
2023/09/24 08:57:44;;;;;;;13.70;6.22;;;;;;;26.18;59.98;98107.34;5112283;28;20163;-58
2023/09/24 09:00:11;;;;;;;17.55;7.03;;;;;;;26.33;60.52;98123.81;5112584;28;20197;-58
2023/09/24 09:02:39;;;;;;;15.38;6.63;;;;;;;26.43;59.73;98105.59;5112141;28;20175;-57
2023/09/24 09:05:07;;;;;;;14.65;6.68;;;;;;;26.66;58.54;98115.72;5112071;28;20214;-57
2023/09/24 09:07:33;;;;;;;19.50;7.32;;;;;;;26.71;58.05;98100.75;5112074;28;20223;-57
2023/09/24 09:10:03;;;;;;;18.83;6.93;;;;;;;26.84;57.82;98113.97;5112077;28;20175;-57
2023/09/24 09:12:30;;;;;;;14.40;6.70;;;;;;;26.99;57.28;98113.66;5111835;28;20193;-57
2023/09/24 09:14:55;;;;;;;21.48;6.72;;;;;;;26.89;56.91;98084.91;5111794;28;20262;-57
2023/09/24 09:17:22;;;;;;;17.70;6.95;;;;;;;26.99;56.59;98081.78;5111920;28;20642;-57
2023/09/24 09:19:52;;;;;;;18.92;6.28;;;;;;;27.30;56.55;98109.13;5111980;28;20194;-58
2023/09/24 09:22:26;;;;;;;17.05;6.72;;;;;;;27.36;54.98;98087.00;5068556;28;20192;-58
2023/09/24 09:25:09;;;;;;;14.50;6.35;;;;;;;27.49;54.92;98108.16;5068595;28;20615;-58
2023/09/24 09:27:36;;;;;;;12.82;7.00;;;;;;;27.36;54.98;98068.41;5068758;28;20223;-58
2023/09/24 09:30:15;;;;;;;12.65;6.80;;;;;;;27.65;54.50;98107.56;5068916;28;20580;-58
2023/09/24 09:32:41;;;;;;;17.17;6.65;;;;;;;27.61;54.44;98084.31;5068565;28;20233;-58
2023/09/24 09:35:07;;;;;;;18.38;6.63;;;;;;;27.65;54.00;98082.84;5068567;28;20647;-58
2023/09/24 09:37:32;;;;;;;17.50;6.35;;;;;;;27.73;54.16;98098.50;5068436;28;20196;-58
2023/09/24 09:39:58;;;;;;;13.43;6.13;;;;;;;27.70;53.39;98096.28;5068480;28;20267;-58
2023/09/24 09:42:25;;;;;;;14.90;6.88;;;;;;;27.73;54.05;98093.16;5068238;28;20338;-58
2023/09/24 09:44:54;;;;;;;16.38;6.13;;;;;;;27.80;53.88;98100.09;5068345;28;20663;-58
2023/09/24 09:47:23;;;;;;;20.52;6.30;;;;;;;27.76;53.13;98079.44;5068235;28;20193;-58
2023/09/24 09:49:58;;;;;;;18.63;6.80;;;;;;;27.93;53.00;98107.91;5068334;28;20655;-58
2023/09/24 09:52:36;;;;;;;18.98;6.30;;;;;;;27.63;52.96;98064.44;5074223;28;20188;-58
2023/09/24 09:55:04;;;;;;;17.10;6.38;;;;;;;27.85;52.84;98078.97;5111444;28;20277;-58
2023/09/24 09:57:32;;;;;;;14.40;5.80;;;;;;;27.90;52.46;98078.28;5111291;28;20311;-58
2023/09/24 09:59:58;;;;;;;20.52;5.78;;;;;;;27.96;52.47;98082.72;5111232;28;20187;-58
2023/09/24 10:02:24;;;;;;;17.15;6.32;;;;;;;27.90;52.33;98062.31;5111314;28;20668;-58
2023/09/24 10:04:51;;;;;;;13.75;5.68;;;;;;;28.03;52.79;98065.66;5110796;28;20566;-58
2023/09/24 10:07:16;;;;;;;15.43;6.07;;;;;;;28.24;52.42;98077.66;5111212;28;20167;-57
2023/09/24 10:09:42;;;;;;;16.05;5.65;;;;;;;28.35;51.11;98088.38;5111158;28;20281;-57
2023/09/24 10:12:08;;;;;;;16.98;6.00;;;;;;;28.30;51.55;98080.25;5111073;28;20223;-57
2023/09/24 10:14:42;;;;;;;14.57;5.25;;;;;;;28.35;50.87;98056.44;5110933;28;20179;-57
2023/09/24 10:17:21;;;;;;;16.00;5.95;;;;;;;28.67;50.19;98088.97;5111185;28;20189;-58
2023/09/24 10:19:59;;;;;;;16.92;5.60;;;;;;;28.76;50.22;98075.13;5111100;28;20214;-57
2023/09/24 10:22:32;;;;;;;17.63;6.03;;;;;;;28.82;49.46;98073.38;5111123;28;20174;-58
2023/09/24 10:24:59;;;;;;;20.52;6.28;;;;;;;28.77;49.25;98075.91;5067836;28;20211;-58
2023/09/24 10:27:30;;;;;;;14.23;5.88;;;;;;;28.76;49.88;98063.66;5068088;28;20275;-58
2023/09/24 10:29:56;;;;;;;16.58;5.95;;;;;;;29.02;49.53;98087.22;5067898;28;20313;-58
2023/09/24 10:32:22;;;;;;;23.48;5.68;;;;;;;29.01;49.77;98056.31;5068056;28;20180;-58
2023/09/24 10:34:59;;;;;;;13.48;5.82;;;;;;;29.33;49.62;98077.06;5067953;28;20677;-58
2023/09/24 10:37:30;;;;;;;15.68;5.45;;;;;;;29.41;48.34;98051.91;5068006;28;20176;-58
2023/09/24 10:39:58;;;;;;;21.27;5.72;;;;;;;29.66;47.84;98077.34;5067889;28;20563;-58
2023/09/24 10:42:34;;;;;;;16.17;6.22;;;;;;;29.57;47.46;98041.38;5067886;28;20180;-58
2023/09/24 10:45:08;;;;;;;19.60;6.30;;;;;;;29.84;46.86;98063.84;5067905;28;20221;-58
2023/09/24 10:47:40;;;;;;;17.25;5.63;;;;;;;29.92;47.31;98070.69;5067815;28;20271;-58
2023/09/24 10:50:09;;;;;;;14.23;5.60;;;;;;;29.93;47.58;98045.63;5067880;28;20216;-57
2023/09/24 10:53:01;;;;;;;18.27;5.45;;;;;;;30.09;46.64;98069.72;5067781;28;20180;-57
2023/09/24 10:55:29;;;;;;;13.88;5.65;;;;;;;30.16;46.23;98067.75;5082017;28;20179;-57
2023/09/24 10:58:00;;;;;;;13.45;5.43;;;;;;;29.97;46.28;98026.22;5114594;28;20186;-57
2023/09/24 11:00:27;;;;;;;17.30;5.07;;;;;;;30.23;45.63;98047.06;5114661;28;20179;-57
2023/09/24 11:02:57;;;;;;;14.55;5.18;;;;;;;30.23;46.19;98033.72;5114464;28;20186;-58
2023/09/24 11:05:24;;;;;;;14.05;5.35;;;;;;;30.47;46.86;98048.56;5114428;28;20286;-58
2023/09/24 11:07:50;;;;;;;16.35;5.47;;;;;;;30.36;45.88;98014.72;5114437;28;20175;-59
2023/09/24 11:10:23;;;;;;;21.80;6.50;;;;;;;30.51;44.96;98016.84;5114397;28;20175;-56
2023/09/24 11:12:51;;;;;;;14.23;5.55;;;;;;;30.53;45.14;98020.91;5114237;28;20604;-57
2023/09/24 11:15:18;;;;;;;21.88;6.32;;;;;;;30.68;44.99;98029.22;5113965;28;20183;-57
2023/09/24 11:17:45;;;;;;;15.10;5.80;;;;;;;30.54;45.30;97995.03;5114224;28;20202;-57
2023/09/24 11:20:10;;;;;;;14.05;5.47;;;;;;;30.69;44.83;98004.13;5114232;28;20227;-58
2023/09/24 11:22:36;;;;;;;17.17;5.60;;;;;;;30.71;45.22;98007.34;5114185;28;20262;-58